Data for 06/03/2010

Time Sea-Level Adjusted Pressure Absolute Pressure Temperature Relative Humidity Dew Point   
(mb) (inHg) (mb) (inHg) (C) (F) (%) (C) (F)
00:05 1010 29.83 839 24.78 13.2 55.8 74 8.6 47.5
00:10 1010 29.83 839 24.78 13.2 55.7 74 8.8 47.8
00:15 1010 29.83 839 24.78 13.1 55.6 74 8.6 47.4
00:20 1010 29.83 839 24.78 13.1 55.7 73 8.5 47.3
00:25 1010 29.83 839 24.78 13.2 55.8 72 8.3 46.9
00:30 1010 29.83 839 24.78 13.3 55.9 72 8.4 47.1
00:35 1010 29.83 839 24.78 13.3 56 72 8.5 47.3
00:40 1010 29.83 839 24.78 13.3 55.9 73 8.6 47.5
00:45 1010 29.83 839 24.78 13.2 55.7 74 8.8 47.8
00:50 1010 29.83 839 24.78 13.2 55.7 75 8.9 48.1
00:55 1010 29.83 839 24.78 13 55.5 77 9.2 48.5
01:00 1010 29.83 839 24.78 13 55.5 77 9.2 48.5
01:05 1010 29.83 839 24.78 13 55.5 79 9.6 49.2
01:10 1010 29.83 839 24.78 12.8 55.1 80 9.5 49.1
01:15 1010 29.83 839 24.78 12.5 54.5 82 9.5 49.1
01:20 1010 29.83 839 24.78 12.3 54.1 83 9.4 49
01:25 1010 29.83 839 24.78 12 53.7 83 9.3 48.8
01:30 1010 29.83 839 24.78 12.1 53.7 80 8.8 47.8
01:35 1010 29.83 839 24.78 12.4 54.3 79 8.9 48
01:40 1010 29.83 839 24.78 12.5 54.5 79 9 48.3
01:45 1010 29.83 839 24.78 12.3 54.2 82 9.3 48.7
01:50 1010 29.83 839 24.78 12.1 53.8 84 9.4 48.9
01:55 1010 29.83 839 24.78 11.9 53.4 86 9.6 49.2
02:00 1010 29.83 839 24.78 11.8 53.2 86 9.6 49.2
02:05 1010 29.83 839 24.78 11.6 52.8 89 9.8 49.6
02:10 1010 29.83 839 24.78 11.5 52.8 88 9.6 49.2
02:15 1010 29.83 839 24.78 11.5 52.7 89 9.7 49.4
02:20 1010 29.83 839 24.78 11.4 52.5 89 9.7 49.5
02:25 1010 29.83 839 24.78 11.3 52.3 90 9.6 49.4
02:30 1010 29.83 839 24.78 11.2 52.2 90 9.6 49.2
02:35 1010 29.83 839 24.78 11.3 52.3 90 9.6 49.3
02:40 1010 29.83 839 24.78 11.2 52.2 89 9.5 49.1
02:45 1010 29.83 839 24.78 11.2 52.2 90 9.6 49.3
02:50 1010 29.83 839 24.78 11.2 52.2 89 9.5 49.1
02:55 1010 29.83 839 24.78 11.2 52.2 90 9.6 49.4
03:00 1010 29.83 839 24.78 11.3 52.3 89 9.5 49.2
03:05 1010 29.83 839 24.78 11.3 52.4 88 9.5 49.1
03:10 1010 29.83 839 24.78 11.4 52.5 89 9.6 49.2
03:15 1010 29.83 839 24.78 11.4 52.5 89 9.7 49.4
03:20 1010 29.83 839 24.78 11.3 52.4 90 9.7 49.5
03:25 1010 29.83 839 24.78 11.3 52.4 89 9.5 49.2
03:30 1010 29.83 839 24.78 11.3 52.3 89 9.6 49.3
03:35 1010 29.83 839 24.78 11.3 52.3 90 9.7 49.4
03:40 1010 29.83 839 24.78 11.3 52.4 90 9.7 49.5
03:45 1010 29.83 839 24.78 11.3 52.4 90 9.7 49.5
03:50 1010 29.83 839 24.78 11.3 52.3 89 9.6 49.3
03:55 1010 29.83 839 24.78 11.3 52.4 89 9.6 49.4
04:00 1010 29.83 839 24.78 11.3 52.4 90 9.7 49.5
04:05 1010 29.83 839 24.78 11.2 52.2 90 9.7 49.5
04:10 1010 29.83 839 24.78 11.1 52 92 9.8 49.7
04:15 1010 29.83 840 24.81 11.1 51.9 92 9.8 49.7
04:20 1010 29.83 840 24.81 11 51.8 92 9.8 49.7
04:25 1010 29.83 840 24.81 10.9 51.7 93 9.8 49.7
04:30 1010 29.83 840 24.81 10.9 51.6 93 9.8 49.7
04:35 1010 29.83 840 24.81 10.9 51.6 94 9.9 49.8
04:40 1011 29.85 840 24.81 10.8 51.5 94 9.9 49.8
04:45 1011 29.85 840 24.81 10.8 51.4 94 9.9 49.8
04:50 1011 29.85 840 24.81 10.8 51.4 94 9.9 49.8
04:55 1011 29.85 840 24.81 10.7 51.3 95 9.9 49.8
05:00 1011 29.85 840 24.81 10.7 51.3 95 9.9 49.8
05:05 1011 29.85 840 24.81 10.7 51.3 95 9.9 49.9
05:10 1011 29.85 840 24.81 10.7 51.2 95 9.8 49.7
05:15 1011 29.85 840 24.81 10.5 51 94 9.6 49.2
05:20 1011 29.85 841 24.83 10.5 51 93 9.5 49
05:25 1011 29.85 841 24.83 10.5 50.9 93 9.3 48.8
05:30 1011 29.85 841 24.83 10.5 50.8 93 9.3 48.8
05:35 1012 29.88 841 24.83 10.4 50.7 92 9.2 48.5
05:40 1012 29.88 841 24.83 10.3 50.6 92 9 48.2
05:45 1011 29.85 841 24.83 10.2 50.4 92 9 48.2
05:50 1012 29.88 841 24.83 10.2 50.3 90 8.6 47.5
05:55 1012 29.88 841 24.83 10.2 50.4 89 8.4 47.2
06:00 1012 29.88 841 24.83 10.2 50.3 88 8.3 46.9
06:05 1012 29.88 841 24.83 10.2 50.4 90 8.7 47.6
06:10 1012 29.88 841 24.83 10.1 50.1 92 8.8 47.9
06:15 1012 29.88 841 24.83 10 50 86 7.7 45.8
06:20 1012 29.88 841 24.83 10.3 50.6 83 7.5 45.5
06:25 1012 29.88 841 24.83 10.6 51.1 81 7.4 45.4
06:30 1012 29.88 841 24.83 10.7 51.3 81 7.6 45.7
06:35 1012 29.88 841 24.83 10.8 51.4 82 7.9 46.2
06:40 1012 29.88 841 24.83 10.6 51.1 82 7.7 45.9
06:45 1012 29.88 841 24.83 10.7 51.2 81 7.6 45.7
06:50 1012 29.88 841 24.83 10.7 51.3 82 7.8 46
06:55 1012 29.88 841 24.83 10.9 51.6 81 7.9 46.1
07:00 1012 29.88 841 24.83 11 51.7 81 7.9 46.2
07:05 1012 29.88 841 24.83 10.9 51.6 82 8 46.5
07:10 1012 29.88 841 24.83 10.8 51.5 81 7.8 46
07:15 1012 29.88 841 24.83 10.7 51.3 81 7.7 45.8
07:20 1012 29.88 841 24.83 11 51.7 81 7.8 46
07:25 1012 29.88 841 24.83 11.3 52.3 79 7.8 46
07:30 1012 29.88 841 24.83 11.3 52.4 78 7.7 45.9
07:35 1012 29.88 842 24.86 11.4 52.6 78 7.7 45.8
07:40 1012 29.88 841 24.83 11.4 52.4 78 7.6 45.7
07:45 1012 29.88 841 24.83 11.5 52.8 77 7.6 45.7
07:50 1012 29.88 842 24.86 11.8 53.2 77 7.8 46.1
07:55 1012 29.88 842 24.86 11.7 53.1 78 8.1 46.6
08:00 1012 29.88 842 24.86 11.7 53.1 75 7.5 45.5
08:05 1013 29.91 842 24.86 11.6 52.8 76 7.6 45.7
08:10 1012 29.88 842 24.86 11.5 52.7 76 7.5 45.5
08:15 1012 29.88 842 24.86 11.6 52.9 75 7.4 45.3
08:20 1013 29.91 842 24.86 11.8 53.2 76 7.7 45.9
08:25 1013 29.91 842 24.86 12 53.5 74 7.6 45.6
08:30 1013 29.91 842 24.86 12 53.6 76 7.9 46.2
08:35 1013 29.91 842 24.86 12.1 53.8 75 7.9 46.2
08:40 1013 29.91 842 24.86 12.2 54 70 7 44.6
08:45 1013 29.91 842 24.86 12.4 54.3 69 7 44.6
08:50 1013 29.91 842 24.86 12.6 54.7 69 7.1 44.8
08:55 1013 29.91 842 24.86 12.8 55 71 7.7 45.9
09:00 1013 29.91 842 24.86 12.9 55.2 68 7.2 45
09:05 1013 29.91 842 24.86 12.8 55 66 6.6 43.8
09:10 1013 29.91 842 24.86 12.6 54.7 62 5.7 42.2
09:15 1013 29.91 842 24.86 12.6 54.6 63 5.8 42.4
09:20 1013 29.91 842 24.86 12.6 54.6 64 6 42.9
09:25 1013 29.91 842 24.86 12.4 54.4 66 6.3 43.3
09:30 1013 29.91 842 24.86 12.3 54.2 65 5.9 42.6
09:35 1013 29.91 842 24.86 12.4 54.3 65 6 42.7
09:40 1013 29.91 842 24.86 12.4 54.3 63 5.7 42.2
09:45 1013 29.91 842 24.86 12.3 54.2 65 6 42.8
09:50 1013 29.91 842 24.86 12.5 54.5 64 6 42.9
09:55 1013 29.91 842 24.86 12.8 55.1 63 6 42.9
10:00 1013 29.91 842 24.86 12.8 55 63 6 42.8
10:05 1013 29.91 842 24.86 13 55.4 62 6 42.7
10:10 1013 29.91 842 24.86 13.2 55.8 61 6 42.8
10:15 1013 29.91 842 24.86 13.3 55.9 62 6.3 43.3
10:20 1013 29.91 842 24.86 13.4 56 62 6.3 43.4
10:25 1013 29.91 842 24.86 13.4 56.2 62 6.3 43.3
10:30 1012 29.88 842 24.86 13.4 56.1 63 6.6 43.8
10:40 1012 29.88 842 24.86 13.4 56.2 62 6.4 43.4
10:45 1012 29.88 842 24.86 14 57.2 59 6.3 43.3
10:50 1012 29.88 842 24.86 14.2 57.5 60 6.7 44
10:55 1012 29.88 842 24.86 14.2 57.5 59 6.4 43.5
11:00 1012 29.88 841 24.83 14.2 57.5 62 7 44.7
11:05 1012 29.88 841 24.83 14.1 57.5 61 6.7 44.1
11:10 1012 29.88 841 24.83 14.4 57.9 59 6.7 44
11:15 1012 29.88 841 24.83 14.7 58.4 59 6.9 44.4
11:20 1012 29.88 841 24.83 15.1 59.3 56 6.6 43.9
11:25 1012 29.88 841 24.83 15.3 59.5 55 6.4 43.5
11:30 1012 29.88 841 24.83 15.6 60 55 6.6 43.8
11:35 1012 29.88 841 24.83 15.9 60.6 51 5.8 42.5
11:40 1012 29.88 841 24.83 16.1 61 50 5.7 42.3
11:45 1012 29.88 841 24.83 16.7 62.1 48 5.8 42.4
11:50 1012 29.88 841 24.83 16.3 61.4 50 6 42.8
11:55 1012 29.88 841 24.83 16.8 62.2 47 5.6 42.1
12:00 1012 29.88 841 24.83 16.9 62.4 50 6.4 43.4
12:05 1012 29.88 841 24.83 16.7 62.1 48 5.8 42.4
12:10 1012 29.88 841 24.83 17.1 62.8 48 6.2 43.2
12:15 1012 29.88 841 24.83 17.2 63 48 6.2 43.2
12:20 1012 29.88 841 24.83 17.2 62.9 45 5.4 41.7
12:25 1012 29.88 841 24.83 17.5 63.4 42 4.6 40.2
12:30 1012 29.88 841 24.83 17.3 63.2 42 4.5 40.1
12:35 1012 29.88 841 24.83 17.4 63.4 43 4.8 40.6
12:40 1011 29.85 841 24.83 17.9 64.2 41 4.5 40.1
12:45 1012 29.88 841 24.83 17.6 63.7 45 5.6 42.2
12:50 1012 29.88 841 24.83 17.9 64.2 45 5.9 42.6
12:55 1012 29.88 841 24.83 18.1 64.6 47 6.7 44
13:00 1012 29.88 841 24.83 17.6 63.7 48 6.7 44
13:05 1012 29.88 841 24.83 17.7 63.9 47 6.4 43.5
13:10 1012 29.88 841 24.83 17.1 62.7 52 7.2 45
13:15 1012 29.88 841 24.83 16.7 62 49 6 42.7
13:20 1012 29.88 841 24.83 17.4 63.3 46 5.8 42.4
13:25 1012 29.88 841 24.83 17.4 63.4 48 6.3 43.3
13:30 1012 29.88 841 24.83 17.2 62.9 47 6 42.8
13:35 1011 29.85 841 24.83 16.8 62.2 50 6.4 43.5
13:40 1011 29.85 841 24.83 16.7 62 48 5.7 42.2
13:45 1011 29.85 841 24.83 16.7 62 48 5.6 42.1
13:50 1011 29.85 841 24.83 16.7 62 47 5.5 41.9
13:55 1011 29.85 841 24.83 16.8 62.2 46 5.4 41.7
14:00 1011 29.85 841 24.83 17 62.6 46 5.4 41.8
14:05 1012 29.88 841 24.83 17.1 62.7 45 5.1 41.1
14:10 1012 29.88 841 24.83 17.4 63.2 44 5 41
14:15 1012 29.88 841 24.83 17.2 63 43 4.8 40.7
14:20 1012 29.88 841 24.83 17.2 63 43 4.8 40.6
14:25 1012 29.88 841 24.83 17.2 62.9 44 4.8 40.6
14:30 1012 29.88 841 24.83 17 62.5 42 4.1 39.3
14:35 1012 29.88 841 24.83 17.1 62.8 39 3.3 38
14:40 1012 29.88 841 24.83 17.2 63 41 4 39.1
14:45 1012 29.88 841 24.83 17.4 63.4 42 4.4 39.9
14:50 1012 29.88 841 24.83 17.5 63.6 39 3.7 38.7
14:55 1011 29.85 841 24.83 18.2 64.8 37 3.3 37.9
15:00 1011 29.85 841 24.83 18.3 65 38 3.9 38.9
15:05 1011 29.85 841 24.83 18.3 64.9 34 2.5 36.5
15:10 1011 29.85 841 24.83 18.7 65.7 35 3.1 37.6
15:15 1011 29.85 841 24.83 18.3 64.9 38 3.9 39.1
15:20 1011 29.85 841 24.83 18.2 64.7 37 3.4 38.1
15:25 1011 29.85 841 24.83 18.6 65.4 32 1.9 35.4
15:30 1011 29.85 841 24.83 18.7 65.6 36 3.5 38.2
15:35 1011 29.85 841 24.83 18.1 64.5 39 3.9 39.1
15:40 1011 29.85 841 24.83 17.7 63.9 38 3.2 37.8
15:45 1011 29.85 841 24.83 17.6 63.6 37 2.8 37
15:50 1011 29.85 840 24.81 17.7 63.9 35 2.4 36.3
15:55 1011 29.85 840 24.81 17.9 64.2 36 2.8 37
16:00 1011 29.85 840 24.81 18.2 64.7 34 2 35.7
16:05 1011 29.85 840 24.81 18.3 64.9 32 1.4 34.5
16:10 1011 29.85 840 24.81 18.2 64.7 34 2.1 35.8
16:15 1011 29.85 840 24.81 18.2 64.7 33 1.8 35.2
16:20 1011 29.85 840 24.81 18.3 64.9 34 2.2 36
16:25 1011 29.85 840 24.81 18.7 65.6 33 2.2 36
16:30 1011 29.85 840 24.81 18.5 65.3 35 2.8 37
16:35 1011 29.85 840 24.81 18.1 64.6 36 3 37.4
16:40 1011 29.85 840 24.81 18.1 64.6 36 2.8 37.1
16:45 1011 29.85 840 24.81 18.3 64.9 35 2.8 37.1
16:50 1011 29.85 840 24.81 18.1 64.5 34 2.2 35.9
16:55 1011 29.85 840 24.81 18.1 64.7 33 1.9 35.4
17:00 1011 29.85 840 24.81 18.2 64.8 34 2.3 36.1
17:05 1011 29.85 840 24.81 18.1 64.7 34 2 35.5
17:10 1011 29.85 840 24.81 18.5 65.2 32 1.7 35
17:15 1011 29.85 841 24.83 18.4 65.2 31 1.2 34.1
17:20 1011 29.85 840 24.81 17.9 64.2 32 1 33.7
17:25 1011 29.85 840 24.81 17.3 63.1 33 1.1 33.9
17:30 1011 29.85 841 24.83 17.2 63 32 0.7 33.2
17:35 1011 29.85 841 24.83 17 62.6 34 1.3 34.4
17:40 1011 29.85 841 24.83 17.1 62.9 34 1.2 34.2
17:45 1011 29.85 841 24.83 17.4 63.2 35 1.9 35.5
17:50 1011 29.85 841 24.83 17.5 63.4 34 1.5 34.8
17:55 1012 29.88 841 24.83 17.3 63.2 35 2 35.5
18:00 1011 29.85 841 24.83 17.4 63.2 35 2 35.7
18:05 1012 29.88 841 24.83 17.2 63 36 2 35.6
18:10 1011 29.85 841 24.83 17.1 62.7 35 1.8 35.2
18:15 1012 29.88 841 24.83 16.9 62.4 36 2 35.7
18:20 1012 29.88 841 24.83 16.8 62.3 37 2.1 35.7
18:25 1012 29.88 841 24.83 16.8 62.3 36 1.9 35.5
18:30 1012 29.88 841 24.83 16.7 62.1 38 2.3 36.1
18:35 1012 29.88 841 24.83 16.7 62 38 2.5 36.6
18:40 1012 29.88 841 24.83 16.6 61.8 39 2.6 36.8
18:45 1012 29.88 841 24.83 16.3 61.3 40 2.9 37.3
18:50 1012 29.88 841 24.83 16 60.9 42 3.3 38
18:55 1012 29.88 841 24.83 15.8 60.4 41 2.5 36.5
19:00 1012 29.88 841 24.83 15.7 60.2 40 2.2 36
19:05 1012 29.88 841 24.83 15.6 60.1 41 2.6 36.7
19:10 1012 29.88 841 24.83 15.5 59.9 41 2.4 36.3
19:15 1012 29.88 841 24.83 15.4 59.8 42 2.6 36.6
19:20 1012 29.88 841 24.83 15.4 59.8 41 2.4 36.3
19:25 1012 29.88 841 24.83 15.3 59.5 41 2.4 36.3
19:30 1012 29.88 841 24.83 15.3 59.5 42 2.5 36.6
19:35 1012 29.88 842 24.86 15.2 59.4 43 2.7 36.9
19:40 1012 29.88 841 24.83 15.2 59.4 42 2.4 36.4
19:45 1012 29.88 842 24.86 15 59.1 45 3.2 37.8
19:50 1012 29.88 842 24.86 14.7 58.5 46 3.4 38.2
19:55 1012 29.88 842 24.86 14.4 57.9 48 3.6 38.4
20:00 1012 29.88 842 24.86 14.3 57.7 50 4 39.1
20:05 1012 29.88 842 24.86 14.1 57.4 50 3.8 38.8
20:10 1013 29.91 842 24.86 14 57.1 50 3.8 38.9
20:15 1013 29.91 842 24.86 14.1 57.4 50 3.9 39
20:20 1013 29.91 842 24.86 14.1 57.3 52 4.4 40
20:25 1013 29.91 842 24.86 13.9 57 54 4.9 40.8
20:30 1013 29.91 842 24.86 13.7 56.7 53 4.5 40.1
20:35 1013 29.91 842 24.86 13.8 56.8 53 4.4 39.9
20:40 1013 29.91 842 24.86 13.7 56.6 55 4.8 40.6
20:45 1013 29.91 842 24.86 13.6 56.5 53 4.4 39.9
20:50 1013 29.91 842 24.86 13.7 56.6 53 4.3 39.8
20:55 1013 29.91 842 24.86 13.6 56.4 55 4.7 40.5
21:00 1013 29.91 842 24.86 13.4 56.2 53 4.1 39.4
21:05 1013 29.91 842 24.86 13.5 56.2 54 4.5 40.2
21:10 1013 29.91 842 24.86 13.5 56.2 51 3.5 38.2
21:15 1013 29.91 842 24.86 13.7 56.6 48 3.1 37.6
21:20 1013 29.91 842 24.86 13.8 56.8 49 3.3 37.9
21:25 1013 29.91 842 24.86 13.7 56.7 49 3.4 38.1
21:30 1013 29.91 842 24.86 13.8 56.8 47 2.6 36.7
21:35 1013 29.91 842 24.86 13.8 56.9 48 3.2 37.8
21:40 1013 29.91 842 24.86 13.7 56.7 49 3.3 37.9
21:45 1013 29.91 842 24.86 13.6 56.4 49 3.2 37.8
21:50 1013 29.91 842 24.86 13.5 56.3 51 3.7 38.6
21:55 1013 29.91 842 24.86 13.1 55.6 53 3.9 39
22:00 1013 29.91 842 24.86 13.2 55.7 51 3.4 38.1
22:05 1013 29.91 842 24.86 13.2 55.8 53 3.9 39
22:10 1013 29.91 842 24.86 13.3 55.9 53 3.8 38.9
22:15 1013 29.91 842 24.86 13 55.3 60 5.5 41.8
22:20 1013 29.91 842 24.86 12.4 54.3 61 5.1 41.1
22:25 1013 29.91 843 24.89 12.3 54.1 63 5.4 41.7
22:30 1013 29.91 843 24.89 12.3 54.1 59 4.6 40.3
22:35 1013 29.91 843 24.89 12.5 54.5 58 4.5 40.1
22:40 1013 29.91 843 24.89 12.4 54.4 60 5 41
22:45 1013 29.91 843 24.89 12.3 54.2 59 4.5 40.1
22:50 1013 29.91 843 24.89 12.4 54.3 57 4.3 39.7
22:55 1013 29.91 843 24.89 12.6 54.6 57 4.2 39.6
23:00 1014 29.94 843 24.89 12.8 55 58 4.7 40.5
23:05 1014 29.94 843 24.89 12.4 54.4 61 5.2 41.4
23:10 1014 29.94 843 24.89 12 53.7 64 5.4 41.8
23:15 1014 29.94 843 24.89 12 53.6 61 4.7 40.5
23:20 1014 29.94 843 24.89 12.1 53.7 61 4.9 40.8
23:25 1014 29.94 843 24.89 12.2 53.9 60 4.7 40.4
23:30 1014 29.94 843 24.89 12.2 54 60 4.9 40.7
23:35 1014 29.94 843 24.89 12.2 54 60 4.7 40.5
23:40 1014 29.94 843 24.89 12.2 54 59 4.5 40
23:45 1014 29.94 843 24.89 12.1 53.9 62 5.1 41.3
23:50 1014 29.94 843 24.89 12.1 53.7 62 5.1 41.2
23:55 1014 29.94 843 24.89 12 53.5 64 5.3 41.6
24:00 1014 29.94 843 24.89 11.9 53.4 66 5.9 42.6